sensor_id;sensor_type;location;lat;lon;timestamp;pressure;altitude;pressure_sealevel;temperature;humidity
62103;BME280;48077;48.104;11.702;2023-01-30T00:01:54;96053.34;;;-5.15;100.00
62103;BME280;48077;48.104;11.702;2023-01-30T00:04:17;96037.31;;;-5.20;100.00
62103;BME280;48077;48.104;11.702;2023-01-30T00:06:41;96049.47;;;-5.20;100.00
62103;BME280;48077;48.104;11.702;2023-01-30T00:09:04;96024.69;;;-5.36;100.00
62103;BME280;48077;48.104;11.702;2023-01-30T00:11:27;96035.56;;;-5.31;100.00
62103;BME280;48077;48.104;11.702;2023-01-30T00:13:52;96040.63;;;-5.29;100.00
62103;BME280;48077;48.104;11.702;2023-01-30T00:16:16;96030.03;;;-5.37;100.00
62103;BME280;48077;48.104;11.702;2023-01-30T00:18:40;96030.25;;;-5.40;100.00
62103;BME280;48077;48.104;11.702;2023-01-30T00:21:06;96023.53;;;-5.43;100.00
62103;BME280;48077;48.104;11.702;2023-01-30T00:23:32;96029.09;;;-5.47;100.00
62103;BME280;48077;48.104;11.702;2023-01-30T00:25:56;96031.81;;;-5.49;100.00
62103;BME280;48077;48.104;11.702;2023-01-30T00:28:19;96027.91;;;-5.55;100.00
62103;BME280;48077;48.104;11.702;2023-01-30T00:30:43;96015.28;;;-5.59;100.00
62103;BME280;48077;48.104;11.702;2023-01-30T00:33:06;96022.69;;;-5.55;100.00
62103;BME280;48077;48.104;11.702;2023-01-30T00:35:29;96016.78;;;-5.57;100.00
62103;BME280;48077;48.104;11.702;2023-01-30T00:37:57;95998.63;;;-5.68;100.00
62103;BME280;48077;48.104;11.702;2023-01-30T00:40:20;96015.38;;;-5.61;100.00
62103;BME280;48077;48.104;11.702;2023-01-30T00:42:44;96002.75;;;-5.65;100.00
62103;BME280;48077;48.104;11.702;2023-01-30T00:45:26;96003.94;;;-5.58;100.00
62103;BME280;48077;48.104;11.702;2023-01-30T00:48:08;95996.16;;;-5.58;100.00
62103;BME280;48077;48.104;11.702;2023-01-30T00:50:31;95981.47;;;-5.59;100.00
62103;BME280;48077;48.104;11.702;2023-01-30T00:53:04;95990.78;;;-5.45;100.00
62103;BME280;48077;48.104;11.702;2023-01-30T00:55:27;95982.03;;;-5.44;100.00
62103;BME280;48077;48.104;11.702;2023-01-30T00:57:51;95982.03;;;-5.44;100.00
62103;BME280;48077;48.104;11.702;2023-01-30T01:00:14;95984.19;;;-5.50;100.00
62103;BME280;48077;48.104;11.702;2023-01-30T01:02:39;95980.88;;;-5.52;100.00
62103;BME280;48077;48.104;11.702;2023-01-30T01:05:03;95971.78;;;-5.57;100.00
62103;BME280;48077;48.104;11.702;2023-01-30T01:07:26;95971.09;;;-5.59;100.00
62103;BME280;48077;48.104;11.702;2023-01-30T01:09:50;95973.22;;;-5.64;100.00
62103;BME280;48077;48.104;11.702;2023-01-30T01:12:13;95966.75;;;-5.70;100.00
62103;BME280;48077;48.104;11.702;2023-01-30T01:14:37;95962.47;;;-5.71;100.00
62103;BME280;48077;48.104;11.702;2023-01-30T01:17:00;95959.16;;;-5.73;100.00
62103;BME280;48077;48.104;11.702;2023-01-30T01:19:23;95948.91;;;-5.75;100.00
62103;BME280;48077;48.104;11.702;2023-01-30T01:21:47;95945.47;;;-5.75;100.00
62103;BME280;48077;48.104;11.702;2023-01-30T01:24:14;95944.44;;;-5.73;100.00
62103;BME280;48077;48.104;11.702;2023-01-30T01:26:37;95948.06;;;-5.75;100.00
62103;BME280;48077;48.104;11.702;2023-01-30T01:29:01;95955.53;;;-5.82;100.00
62103;BME280;48077;48.104;11.702;2023-01-30T01:31:24;95945.63;;;-5.88;100.00
62103;BME280;48077;48.104;11.702;2023-01-30T01:33:48;95955.78;;;-5.85;100.00
62103;BME280;48077;48.104;11.702;2023-01-30T01:36:12;95940.31;;;-5.86;100.00
62103;BME280;48077;48.104;11.702;2023-01-30T01:38:36;95953.03;;;-5.83;100.00
62103;BME280;48077;48.104;11.702;2023-01-30T01:41:01;95949.88;;;-5.87;100.00
62103;BME280;48077;48.104;11.702;2023-01-30T01:43:24;95955.31;;;-5.90;100.00
62103;BME280;48077;48.104;11.702;2023-01-30T01:45:54;95944.09;;;-5.91;100.00
62103;BME280;48077;48.104;11.702;2023-01-30T01:48:35;95942.09;;;-5.87;100.00
62103;BME280;48077;48.104;11.702;2023-01-30T01:51:04;95937.94;;;-5.90;100.00
62103;BME280;48077;48.104;11.702;2023-01-30T01:53:34;95945.63;;;-5.88;100.00
62103;BME280;48077;48.104;11.702;2023-01-30T01:55:59;95927.13;;;-5.95;100.00
62103;BME280;48077;48.104;11.702;2023-01-30T01:58:32;95922.34;;;-5.90;100.00
62103;BME280;48077;48.104;11.702;2023-01-30T02:00:58;95920.81;;;-5.92;100.00
62103;BME280;48077;48.104;11.702;2023-01-30T02:03:24;95919.59;;;-5.98;100.00
62103;BME280;48077;48.104;11.702;2023-01-30T02:05:51;95922.53;;;-6.02;100.00
62103;BME280;48077;48.104;11.702;2023-01-30T02:08:37;95919.25;;;-6.16;100.00
62103;BME280;48077;48.104;11.702;2023-01-30T02:11:25;95919.13;;;-6.25;100.00
62103;BME280;48077;48.104;11.702;2023-01-30T02:13:51;95914.28;;;-6.30;100.00
62103;BME280;48077;48.104;11.702;2023-01-30T02:16:15;95935.75;;;-6.17;100.00
62103;BME280;48077;48.104;11.702;2023-01-30T02:18:41;95949.91;;;-6.21;100.00
62103;BME280;48077;48.104;11.702;2023-01-30T02:21:45;95927.13;;;-6.40;100.00
62103;BME280;48077;48.104;11.702;2023-01-30T02:24:50;95942.38;;;-6.24;100.00
62103;BME280;48077;48.104;11.702;2023-01-30T02:27:32;95944.97;;;-6.24;100.00
62103;BME280;48077;48.104;11.702;2023-01-30T02:36:09;95945.56;;;-6.20;100.00
62103;BME280;48077;48.104;11.702;2023-01-30T02:39:09;95927.06;;;-6.27;100.00
62103;BME280;48077;48.104;11.702;2023-01-30T02:44:58;95935.53;;;-6.25;100.00
62103;BME280;48077;48.104;11.702;2023-01-30T02:47:28;95938.38;;;-6.28;100.00
62103;BME280;48077;48.104;11.702;2023-01-30T02:49:59;95959.97;;;-6.39;100.00
62103;BME280;48077;48.104;11.702;2023-01-30T02:52:26;95948.50;;;-6.47;100.00
62103;BME280;48077;48.104;11.702;2023-01-30T02:54:51;95956.41;;;-6.49;100.00
62103;BME280;48077;48.104;11.702;2023-01-30T02:57:22;95955.44;;;-6.59;100.00
62103;BME280;48077;48.104;11.702;2023-01-30T02:59:48;95957.81;;;-6.56;100.00
62103;BME280;48077;48.104;11.702;2023-01-30T03:02:38;95954.88;;;-6.52;100.00
62103;BME280;48077;48.104;11.702;2023-01-30T03:05:30;95959.81;;;-6.48;100.00
62103;BME280;48077;48.104;11.702;2023-01-30T03:10:42;95977.72;;;-6.57;100.00
62103;BME280;48077;48.104;11.702;2023-01-30T03:15:45;95957.91;;;-6.69;100.00
62103;BME280;48077;48.104;11.702;2023-01-30T03:18:11;95969.13;;;-6.57;100.00
62103;BME280;48077;48.104;11.702;2023-01-30T03:20:38;95972.53;;;-6.57;100.00
62103;BME280;48077;48.104;11.702;2023-01-30T03:23:02;95963.47;;;-6.62;100.00
62103;BME280;48077;48.104;11.702;2023-01-30T03:25:25;95957.44;;;-6.63;100.00
62103;BME280;48077;48.104;11.702;2023-01-30T03:27:50;95961.00;;;-6.53;100.00
62103;BME280;48077;48.104;11.702;2023-01-30T03:30:15;95944.13;;;-6.47;100.00
62103;BME280;48077;48.104;11.702;2023-01-30T03:32:38;95939.66;;;-6.45;100.00
62103;BME280;48077;48.104;11.702;2023-01-30T03:35:02;95934.09;;;-6.40;100.00
62103;BME280;48077;48.104;11.702;2023-01-30T03:37:26;95933.75;;;-6.36;100.00
62103;BME280;48077;48.104;11.702;2023-01-30T03:39:49;95927.53;;;-6.33;100.00
62103;BME280;48077;48.104;11.702;2023-01-30T03:42:12;95926.66;;;-6.34;100.00
62103;BME280;48077;48.104;11.702;2023-01-30T03:44:36;95926.81;;;-6.35;100.00
62103;BME280;48077;48.104;11.702;2023-01-30T03:46:59;95925.75;;;-6.33;100.00
62103;BME280;48077;48.104;11.702;2023-01-30T03:49:23;95915.25;;;-6.31;100.00
62103;BME280;48077;48.104;11.702;2023-01-30T03:51:46;95917.84;;;-6.31;100.00
62103;BME280;48077;48.104;11.702;2023-01-30T03:54:09;95917.94;;;-6.33;100.00
62103;BME280;48077;48.104;11.702;2023-01-30T03:56:33;95908.75;;;-6.37;100.00
62103;BME280;48077;48.104;11.702;2023-01-30T03:58:56;95919.03;;;-6.35;100.00
62103;BME280;48077;48.104;11.702;2023-01-30T04:01:19;95910.97;;;-6.32;100.00
62103;BME280;48077;48.104;11.702;2023-01-30T04:03:43;95895.03;;;-6.27;100.00
62103;BME280;48077;48.104;11.702;2023-01-30T04:06:06;95901.28;;;-6.19;100.00
62103;BME280;48077;48.104;11.702;2023-01-30T04:08:29;95901.06;;;-6.16;100.00
62103;BME280;48077;48.104;11.702;2023-01-30T04:10:53;95893.38;;;-6.17;100.00
62103;BME280;48077;48.104;11.702;2023-01-30T04:13:16;95893.38;;;-6.06;100.00
62103;BME280;48077;48.104;11.702;2023-01-30T04:15:40;95897.41;;;-6.02;100.00
62103;BME280;48077;48.104;11.702;2023-01-30T04:18:03;95898.81;;;-5.98;100.00
62103;BME280;48077;48.104;11.702;2023-01-30T04:20:27;95932.31;;;-5.95;100.00
62103;BME280;48077;48.104;11.702;2023-01-30T04:22:50;95929.13;;;-5.98;100.00
62103;BME280;48077;48.104;11.702;2023-01-30T04:25:13;95928.94;;;-5.85;100.00
62103;BME280;48077;48.104;11.702;2023-01-30T04:27:37;95927.75;;;-5.81;100.00
62103;BME280;48077;48.104;11.702;2023-01-30T04:30:00;95919.28;;;-5.83;100.00
62103;BME280;48077;48.104;11.702;2023-01-30T04:32:25;95922.94;;;-5.75;100.00
62103;BME280;48077;48.104;11.702;2023-01-30T04:34:49;95919.84;;;-5.68;100.00
62103;BME280;48077;48.104;11.702;2023-01-30T04:37:12;95918.50;;;-5.63;100.00
62103;BME280;48077;48.104;11.702;2023-01-30T04:39:38;95919.91;;;-5.59;100.00
62103;BME280;48077;48.104;11.702;2023-01-30T04:42:03;95918.03;;;-5.57;100.00
62103;BME280;48077;48.104;11.702;2023-01-30T04:44:27;95928.91;;;-5.52;100.00
62103;BME280;48077;48.104;11.702;2023-01-30T04:46:50;95911.63;;;-5.53;100.00
62103;BME280;48077;48.104;11.702;2023-01-30T04:49:13;95920.84;;;-5.49;100.00
62103;BME280;48077;48.104;11.702;2023-01-30T04:51:37;95918.00;;;-5.45;100.00
62103;BME280;48077;48.104;11.702;2023-01-30T04:54:00;95887.84;;;-5.48;100.00
62103;BME280;48077;48.104;11.702;2023-01-30T04:56:24;95876.97;;;-5.42;100.00
62103;BME280;48077;48.104;11.702;2023-01-30T04:58:47;95871.41;;;-5.37;100.00
62103;BME280;48077;48.104;11.702;2023-01-30T05:01:17;95878.00;;;-5.33;100.00
62103;BME280;48077;48.104;11.702;2023-01-30T05:03:43;95873.56;;;-5.42;100.00
62103;BME280;48077;48.104;11.702;2023-01-30T05:06:06;95883.00;;;-5.41;100.00
62103;BME280;48077;48.104;11.702;2023-01-30T05:08:29;95865.53;;;-5.51;100.00
62103;BME280;48077;48.104;11.702;2023-01-30T05:10:53;95866.63;;;-5.53;100.00
62103;BME280;48077;48.104;11.702;2023-01-30T05:13:16;95880.22;;;-5.50;100.00
62103;BME280;48077;48.104;11.702;2023-01-30T05:15:39;95883.31;;;-5.56;100.00
62103;BME280;48077;48.104;11.702;2023-01-30T05:18:03;95874.09;;;-5.60;100.00
62103;BME280;48077;48.104;11.702;2023-01-30T05:20:26;95867.22;;;-5.61;100.00
62103;BME280;48077;48.104;11.702;2023-01-30T05:22:50;95839.63;;;-5.62;100.00
62103;BME280;48077;48.104;11.702;2023-01-30T05:25:13;95815.63;;;-5.65;100.00
62103;BME280;48077;48.104;11.702;2023-01-30T05:27:36;95833.59;;;-5.62;100.00
62103;BME280;48077;48.104;11.702;2023-01-30T05:30:00;95846.59;;;-5.62;100.00
62103;BME280;48077;48.104;11.702;2023-01-30T05:32:23;95839.03;;;-5.65;100.00
62103;BME280;48077;48.104;11.702;2023-01-30T05:34:49;95845.41;;;-5.70;100.00
62103;BME280;48077;48.104;11.702;2023-01-30T05:37:12;95839.41;;;-5.70;100.00
62103;BME280;48077;48.104;11.702;2023-01-30T05:39:36;95842.72;;;-5.68;100.00
62103;BME280;48077;48.104;11.702;2023-01-30T05:41:59;95842.31;;;-5.63;100.00
62103;BME280;48077;48.104;11.702;2023-01-30T05:44:22;95839.50;;;-5.60;100.00
62103;BME280;48077;48.104;11.702;2023-01-30T05:46:46;95830.03;;;-5.61;100.00
62103;BME280;48077;48.104;11.702;2023-01-30T05:49:09;95834.66;;;-5.65;100.00
62103;BME280;48077;48.104;11.702;2023-01-30T05:51:33;95836.53;;;-5.56;100.00
62103;BME280;48077;48.104;11.702;2023-01-30T05:53:56;95824.59;;;-5.58;100.00
62103;BME280;48077;48.104;11.702;2023-01-30T05:56:19;95841.72;;;-5.56;100.00
62103;BME280;48077;48.104;11.702;2023-01-30T05:58:43;95827.19;;;-5.58;100.00
62103;BME280;48077;48.104;11.702;2023-01-30T06:01:12;95833.28;;;-5.48;100.00
62103;BME280;48077;48.104;11.702;2023-01-30T06:03:35;95835.75;;;-5.46;100.00
62103;BME280;48077;48.104;11.702;2023-01-30T06:06:00;95819.22;;;-5.45;100.00
62103;BME280;48077;48.104;11.702;2023-01-30T06:08:23;95809.88;;;-5.48;100.00
62103;BME280;48077;48.104;11.702;2023-01-30T06:10:47;95827.25;;;-5.49;100.00
62103;BME280;48077;48.104;11.702;2023-01-30T06:13:10;95828.03;;;-5.37;100.00
62103;BME280;48077;48.104;11.702;2023-01-30T06:15:33;95832.16;;;-5.34;100.00
62103;BME280;48077;48.104;11.702;2023-01-30T06:17:57;95826.72;;;-5.31;100.00
62103;BME280;48077;48.104;11.702;2023-01-30T06:20:20;95822.13;;;-5.39;100.00
62103;BME280;48077;48.104;11.702;2023-01-30T06:22:43;95834.50;;;-5.31;100.00
62103;BME280;48077;48.104;11.702;2023-01-30T06:25:07;95832.84;;;-5.32;100.00
62103;BME280;48077;48.104;11.702;2023-01-30T06:27:31;95817.94;;;-5.30;100.00
62103;BME280;48077;48.104;11.702;2023-01-30T06:29:55;95828.41;;;-5.20;100.00
62103;BME280;48077;48.104;11.702;2023-01-30T06:32:19;95823.91;;;-5.18;100.00
62103;BME280;48077;48.104;11.702;2023-01-30T06:34:42;95831.91;;;-5.10;100.00
62103;BME280;48077;48.104;11.702;2023-01-30T06:37:06;95821.16;;;-5.17;100.00
62103;BME280;48077;48.104;11.702;2023-01-30T06:39:29;95811.91;;;-5.10;100.00
62103;BME280;48077;48.104;11.702;2023-01-30T06:41:52;95795.16;;;-5.17;100.00
62103;BME280;48077;48.104;11.702;2023-01-30T06:44:16;95811.53;;;-5.05;100.00
62103;BME280;48077;48.104;11.702;2023-01-30T06:46:39;95827.00;;;-5.03;100.00
62103;BME280;48077;48.104;11.702;2023-01-30T06:49:02;95826.19;;;-5.04;100.00
62103;BME280;48077;48.104;11.702;2023-01-30T06:51:26;95823.75;;;-5.17;100.00
62103;BME280;48077;48.104;11.702;2023-01-30T06:53:49;95847.13;;;-5.05;100.00
62103;BME280;48077;48.104;11.702;2023-01-30T06:56:13;95842.75;;;-5.05;100.00
62103;BME280;48077;48.104;11.702;2023-01-30T06:58:36;95831.91;;;-5.10;100.00
62103;BME280;48077;48.104;11.702;2023-01-30T07:01:00;95861.53;;;-5.01;100.00
62103;BME280;48077;48.104;11.702;2023-01-30T07:03:24;95849.59;;;-5.04;100.00
62103;BME280;48077;48.104;11.702;2023-01-30T07:05:47;95850.84;;;-4.98;100.00
62103;BME280;48077;48.104;11.702;2023-01-30T07:08:11;95849.59;;;-5.04;100.00
62103;BME280;48077;48.104;11.702;2023-01-30T07:10:35;95863.34;;;-4.92;100.00
62103;BME280;48077;48.104;11.702;2023-01-30T07:12:59;95857.06;;;-4.90;100.00
62103;BME280;48077;48.104;11.702;2023-01-30T07:15:22;95846.41;;;-4.86;100.00
62103;BME280;48077;48.104;11.702;2023-01-30T07:17:45;95852.59;;;-4.78;100.00
62103;BME280;48077;48.104;11.702;2023-01-30T07:20:09;95849.31;;;-4.80;100.00
62103;BME280;48077;48.104;11.702;2023-01-30T07:22:33;95854.56;;;-4.70;100.00
62103;BME280;48077;48.104;11.702;2023-01-30T07:24:57;95861.75;;;-4.62;100.00
62103;BME280;48077;48.104;11.702;2023-01-30T07:27:20;95844.75;;;-4.57;100.00
62103;BME280;48077;48.104;11.702;2023-01-30T07:29:43;95851.22;;;-4.51;100.00
62103;BME280;48077;48.104;11.702;2023-01-30T07:32:13;95849.19;;;-4.48;100.00
62103;BME280;48077;48.104;11.702;2023-01-30T07:34:37;95849.63;;;-4.42;100.00
62103;BME280;48077;48.104;11.702;2023-01-30T07:37:00;95846.59;;;-4.38;100.00
62103;BME280;48077;48.104;11.702;2023-01-30T07:39:23;95841.31;;;-4.27;100.00
62103;BME280;48077;48.104;11.702;2023-01-30T07:41:47;95844.34;;;-4.21;100.00
62103;BME280;48077;48.104;11.702;2023-01-30T07:44:11;95849.00;;;-4.15;100.00
62103;BME280;48077;48.104;11.702;2023-01-30T07:46:35;95851.22;;;-4.11;100.00
62103;BME280;48077;48.104;11.702;2023-01-30T07:49:06;95821.19;;;-4.15;100.00
62103;BME280;48077;48.104;11.702;2023-01-30T07:51:30;95834.38;;;-3.97;100.00
62103;BME280;48077;48.104;11.702;2023-01-30T07:53:53;95838.94;;;-3.89;100.00
62103;BME280;48077;48.104;11.702;2023-01-30T07:56:16;95824.53;;;-3.83;99.94
62103;BME280;48077;48.104;11.702;2023-01-30T07:58:42;95815.22;;;-3.76;99.31
62103;BME280;48077;48.104;11.702;2023-01-30T08:01:05;95800.66;;;-3.69;98.83
62103;BME280;48077;48.104;11.702;2023-01-30T08:03:28;95801.78;;;-3.62;97.97
62103;BME280;48077;48.104;11.702;2023-01-30T08:05:52;95788.19;;;-3.56;97.67
62103;BME280;48077;48.104;11.702;2023-01-30T08:08:16;95794.22;;;-3.46;96.90
62103;BME280;48077;48.104;11.702;2023-01-30T08:10:39;95775.69;;;-3.42;96.02
62103;BME280;48077;48.104;11.702;2023-01-30T08:13:02;95795.00;;;-3.26;95.96
62103;BME280;48077;48.104;11.702;2023-01-30T08:15:26;95785.25;;;-3.14;95.47
62103;BME280;48077;48.104;11.702;2023-01-30T08:17:54;95786.03;;;-3.03;94.04
62103;BME280;48077;48.104;11.702;2023-01-30T08:20:18;95796.31;;;-2.92;93.82
62103;BME280;48077;48.104;11.702;2023-01-30T08:22:41;95792.59;;;-2.90;92.99
62103;BME280;48077;48.104;11.702;2023-01-30T08:25:05;95795.59;;;-2.75;92.13
62103;BME280;48077;48.104;11.702;2023-01-30T08:27:28;95782.22;;;-2.72;90.91
62103;BME280;48077;48.104;11.702;2023-01-30T08:29:52;95786.53;;;-2.53;89.74
62103;BME280;48077;48.104;11.702;2023-01-30T08:32:15;95793.38;;;-2.42;88.71
62103;BME280;48077;48.104;11.702;2023-01-30T08:34:38;95780.25;;;-2.32;88.11
62103;BME280;48077;48.104;11.702;2023-01-30T08:37:02;95799.28;;;-2.12;87.56
62103;BME280;48077;48.104;11.702;2023-01-30T08:39:25;95784.78;;;-2.07;86.79
62103;BME280;48077;48.104;11.702;2023-01-30T08:41:49;95779.41;;;-2.05;85.80
62103;BME280;48077;48.104;11.702;2023-01-30T08:44:12;95778.00;;;-1.99;85.73
62103;BME280;48077;48.104;11.702;2023-01-30T08:46:36;95771.88;;;-2.08;85.49
62103;BME280;48077;48.104;11.702;2023-01-30T08:49:00;95758.56;;;-2.15;84.76
62103;BME280;48077;48.104;11.702;2023-01-30T08:51:23;95776.66;;;-2.04;84.43
62103;BME280;48077;48.104;11.702;2023-01-30T08:53:47;95770.53;;;-2.12;84.93
62103;BME280;48077;48.104;11.702;2023-01-30T08:56:10;95761.84;;;-2.13;85.64
62103;BME280;48077;48.104;11.702;2023-01-30T08:58:33;95775.25;;;-1.98;84.26
62103;BME280;48077;48.104;11.702;2023-01-30T09:00:57;95768.06;;;-1.78;84.35
62103;BME280;48077;48.104;11.702;2023-01-30T09:03:20;95755.22;;;-1.71;83.94
62103;BME280;48077;48.104;11.702;2023-01-30T09:05:44;95767.63;;;-1.55;83.47
62103;BME280;48077;48.104;11.702;2023-01-30T09:08:07;95750.66;;;-1.51;82.38
62103;BME280;48077;48.104;11.702;2023-01-30T09:10:30;95752.22;;;-1.40;82.07
62103;BME280;48077;48.104;11.702;2023-01-30T09:12:54;95726.34;;;-1.44;81.27
62103;BME280;48077;48.104;11.702;2023-01-30T09:15:17;95743.59;;;-1.33;81.12
62103;BME280;48077;48.104;11.702;2023-01-30T09:17:40;95736.09;;;-1.28;80.39
62103;BME280;48077;48.104;11.702;2023-01-30T09:20:05;95746.22;;;-1.07;78.98
62103;BME280;48077;48.104;11.702;2023-01-30T09:22:29;95734.84;;;-0.97;78.02
62103;BME280;48077;48.104;11.702;2023-01-30T09:24:52;95746.34;;;-0.82;78.10
62103;BME280;48077;48.104;11.702;2023-01-30T09:27:16;95736.13;;;-0.67;78.05
62103;BME280;48077;48.104;11.702;2023-01-30T09:29:39;95732.25;;;-0.55;77.42
62103;BME280;48077;48.104;11.702;2023-01-30T09:32:02;95741.50;;;-0.34;76.38
62103;BME280;48077;48.104;11.702;2023-01-30T09:34:26;95750.72;;;-0.22;75.92
62103;BME280;48077;48.104;11.702;2023-01-30T09:36:50;95760.88;;;-0.11;74.68
62103;BME280;48077;48.104;11.702;2023-01-30T09:39:14;95766.34;;;-0.04;73.55
62103;BME280;48077;48.104;11.702;2023-01-30T09:41:52;95756.84;;;0.03;73.38
62103;BME280;48077;48.104;11.702;2023-01-30T09:47:10;95732.75;;;0.24;73.27
62103;BME280;48077;48.104;11.702;2023-01-30T09:49:37;95725.06;;;0.31;71.66
62103;BME280;48077;48.104;11.702;2023-01-30T09:52:26;95728.19;;;0.43;71.09
62103;BME280;48077;48.104;11.702;2023-01-30T09:54:59;95717.19;;;0.47;71.70
62103;BME280;48077;48.104;11.702;2023-01-30T09:57:24;95704.56;;;0.59;70.34
62103;BME280;48077;48.104;11.702;2023-01-30T09:59:53;95710.63;;;0.68;69.57
62103;BME280;48077;48.104;11.702;2023-01-30T10:02:58;95697.81;;;0.73;68.16
62103;BME280;48077;48.104;11.702;2023-01-30T10:05:36;95696.97;;;0.89;66.57
62103;BME280;48077;48.104;11.702;2023-01-30T10:16:23;95692.19;;;1.00;65.88
62103;BME280;48077;48.104;11.702;2023-01-30T10:24:28;95700.06;;;1.00;68.25
62103;BME280;48077;48.104;11.702;2023-01-30T10:26:55;95684.41;;;1.24;68.35
62103;BME280;48077;48.104;11.702;2023-01-30T10:29:38;95664.13;;;1.40;67.68
62103;BME280;48077;48.104;11.702;2023-01-30T10:32:26;95655.47;;;1.63;67.75
62103;BME280;48077;48.104;11.702;2023-01-30T10:34:52;95650.28;;;1.78;68.14
62103;BME280;48077;48.104;11.702;2023-01-30T10:37:41;95649.19;;;1.95;67.85
62103;BME280;48077;48.104;11.702;2023-01-30T10:40:19;95642.25;;;2.02;67.99
62103;BME280;48077;48.104;11.702;2023-01-30T10:54:01;95646.13;;;2.82;67.30
62103;BME280;48077;48.104;11.702;2023-01-30T10:56:41;95632.88;;;2.76;68.56
62103;BME280;48077;48.104;11.702;2023-01-30T11:04:47;95663.41;;;2.85;68.97
62103;BME280;48077;48.104;11.702;2023-01-30T11:07:13;95657.78;;;2.73;69.03
62103;BME280;48077;48.104;11.702;2023-01-30T11:09:42;95644.69;;;2.65;70.33
62103;BME280;48077;48.104;11.702;2023-01-30T11:12:06;95640.13;;;2.59;71.13
62103;BME280;48077;48.104;11.702;2023-01-30T11:14:48;95625.44;;;2.41;72.05
62103;BME280;48077;48.104;11.702;2023-01-30T11:17:15;95600.22;;;2.32;72.12
62103;BME280;48077;48.104;11.702;2023-01-30T11:19:40;95574.50;;;2.19;72.36
62103;BME280;48077;48.104;11.702;2023-01-30T11:22:04;95602.75;;;2.26;73.94
62103;BME280;48077;48.104;11.702;2023-01-30T11:24:30;95591.47;;;2.17;73.24
62103;BME280;48077;48.104;11.702;2023-01-30T11:26:55;95582.75;;;2.16;74.39
62103;BME280;48077;48.104;11.702;2023-01-30T11:29:30;95575.31;;;2.20;74.44
62103;BME280;48077;48.104;11.702;2023-01-30T11:31:54;95558.09;;;2.17;74.06
62103;BME280;48077;48.104;11.702;2023-01-30T11:34:19;95560.63;;;2.26;74.71
62103;BME280;48077;48.104;11.702;2023-01-30T11:36:43;95578.88;;;2.27;75.37
62103;BME280;48077;48.104;11.702;2023-01-30T11:41:35;95564.69;;;3.32;71.27
62103;BME280;48077;48.104;11.702;2023-01-30T11:44:03;95573.91;;;3.43;71.22
62103;BME280;48077;48.104;11.702;2023-01-30T11:46:30;95560.91;;;3.41;70.48
62103;BME280;48077;48.104;11.702;2023-01-30T11:49:00;95549.63;;;3.11;70.89
62103;BME280;48077;48.104;11.702;2023-01-30T11:51:24;95550.16;;;3.21;70.82
62103;BME280;48077;48.104;11.702;2023-01-30T11:53:55;95549.16;;;3.59;69.44
62103;BME280;48077;48.104;11.702;2023-01-30T11:56:34;95529.06;;;3.79;68.20
62103;BME280;48077;48.104;11.702;2023-01-30T11:59:02;95536.94;;;4.01;68.33
62103;BME280;48077;48.104;11.702;2023-01-30T12:01:28;95507.94;;;3.79;68.71
62103;BME280;48077;48.104;11.702;2023-01-30T12:03:53;95543.03;;;3.37;69.01
62103;BME280;48077;48.104;11.702;2023-01-30T12:06:28;95538.91;;;2.98;70.36
62103;BME280;48077;48.104;11.702;2023-01-30T12:08:52;95527.06;;;2.57;72.60
62103;BME280;48077;48.104;11.702;2023-01-30T12:11:41;95536.78;;;2.42;74.47
62103;BME280;48077;48.104;11.702;2023-01-30T12:16:53;95534.66;;;2.22;75.75
62103;BME280;48077;48.104;11.702;2023-01-30T12:24:57;95520.91;;;1.97;76.32
62103;BME280;48077;48.104;11.702;2023-01-30T12:27:28;95523.91;;;1.94;77.07
62103;BME280;48077;48.104;11.702;2023-01-30T12:30:14;95524.16;;;1.85;78.69
62103;BME280;48077;48.104;11.702;2023-01-30T12:32:42;95500.28;;;1.71;79.01
62103;BME280;48077;48.104;11.702;2023-01-30T12:35:14;95503.56;;;1.73;78.93
62103;BME280;48077;48.104;11.702;2023-01-30T12:37:57;95508.34;;;1.70;77.96
62103;BME280;48077;48.104;11.702;2023-01-30T12:40:35;95484.75;;;1.61;78.80
62103;BME280;48077;48.104;11.702;2023-01-30T12:43:23;95492.81;;;1.60;79.47
62103;BME280;48077;48.104;11.702;2023-01-30T12:46:39;95487.53;;;1.60;78.36
62103;BME280;48077;48.104;11.702;2023-01-30T12:58:05;95485.56;;;1.62;79.58
62103;BME280;48077;48.104;11.702;2023-01-30T13:03:35;95496.38;;;1.67;80.33
62103;BME280;48077;48.104;11.702;2023-01-30T13:11:54;95475.81;;;1.48;81.60
62103;BME280;48077;48.104;11.702;2023-01-30T13:14:54;95498.44;;;1.57;82.48
62103;BME280;48077;48.104;11.702;2023-01-30T13:20:02;95506.47;;;1.55;82.91
62103;BME280;48077;48.104;11.702;2023-01-30T13:27:36;95524.19;;;1.61;82.61
62103;BME280;48077;48.104;11.702;2023-01-30T13:30:05;95504.31;;;1.59;82.29
62103;BME280;48077;48.104;11.702;2023-01-30T13:32:47;95512.84;;;1.61;82.46
62103;BME280;48077;48.104;11.702;2023-01-30T13:35:30;95531.84;;;1.71;81.98
62103;BME280;48077;48.104;11.702;2023-01-30T13:37:56;95537.09;;;1.71;81.80
62103;BME280;48077;48.104;11.702;2023-01-30T13:40:41;95519.50;;;1.72;81.76
62103;BME280;48077;48.104;11.702;2023-01-30T13:43:13;95523.31;;;1.69;82.26
62103;BME280;48077;48.104;11.702;2023-01-30T13:45:41;95527.09;;;1.67;81.27
62103;BME280;48077;48.104;11.702;2023-01-30T13:48:18;95533.47;;;1.72;81.66
62103;BME280;48077;48.104;11.702;2023-01-30T13:51:16;95543.34;;;1.70;81.78
62103;BME280;48077;48.104;11.702;2023-01-30T13:53:52;95535.28;;;1.72;81.50
62103;BME280;48077;48.104;11.702;2023-01-30T13:59:00;95537.75;;;1.73;80.72
62103;BME280;48077;48.104;11.702;2023-01-30T14:07:14;95554.34;;;1.74;80.88
62103;BME280;48077;48.104;11.702;2023-01-30T14:09:44;95548.59;;;1.70;80.96
62103;BME280;48077;48.104;11.702;2023-01-30T14:12:23;95533.34;;;1.66;80.87
62103;BME280;48077;48.104;11.702;2023-01-30T14:15:26;95548.69;;;1.77;80.68
62103;BME280;48077;48.104;11.702;2023-01-30T14:20:20;95551.81;;;1.80;80.46
62103;BME280;48077;48.104;11.702;2023-01-30T14:22:53;95551.28;;;1.85;80.45